sensor_id;sensor_type;location;lat;lon;timestamp;P1;durP1;ratioP1;P2;durP2;ratioP2
26478;SDS011;14163;-26.142;27.992;2022-08-01T00:00:50;22.87;;;18.50;;
26478;SDS011;14163;-26.142;27.992;2022-08-01T00:03:20;26.47;;;19.37;;
26478;SDS011;14163;-26.142;27.992;2022-08-01T00:05:49;25.87;;;18.60;;
26478;SDS011;14163;-26.142;27.992;2022-08-01T00:08:18;27.50;;;20.13;;
26478;SDS011;14163;-26.142;27.992;2022-08-01T00:10:47;25.57;;;19.47;;
26478;SDS011;14163;-26.142;27.992;2022-08-01T00:13:16;22.27;;;18.67;;
26478;SDS011;14163;-26.142;27.992;2022-08-01T00:15:46;24.93;;;20.20;;
26478;SDS011;14163;-26.142;27.992;2022-08-01T00:18:17;22.53;;;19.03;;
26478;SDS011;14163;-26.142;27.992;2022-08-01T00:20:46;20.13;;;18.03;;
26478;SDS011;14163;-26.142;27.992;2022-08-01T00:23:15;29.07;;;19.57;;
26478;SDS011;14163;-26.142;27.992;2022-08-01T00:25:44;23.87;;;19.60;;
26478;SDS011;14163;-26.142;27.992;2022-08-01T00:28:13;30.73;;;19.70;;
26478;SDS011;14163;-26.142;27.992;2022-08-01T00:30:43;22.13;;;19.23;;
26478;SDS011;14163;-26.142;27.992;2022-08-01T00:33:12;23.80;;;19.13;;
26478;SDS011;14163;-26.142;27.992;2022-08-01T00:35:43;22.90;;;19.60;;
26478;SDS011;14163;-26.142;27.992;2022-08-01T00:38:12;24.57;;;20.10;;
26478;SDS011;14163;-26.142;27.992;2022-08-01T00:40:41;27.40;;;20.77;;
26478;SDS011;14163;-26.142;27.992;2022-08-01T00:43:11;27.50;;;21.70;;
26478;SDS011;14163;-26.142;27.992;2022-08-01T00:45:40;25.33;;;21.03;;
26478;SDS011;14163;-26.142;27.992;2022-08-01T00:48:09;28.60;;;21.53;;
26478;SDS011;14163;-26.142;27.992;2022-08-01T00:50:38;25.77;;;21.63;;
26478;SDS011;14163;-26.142;27.992;2022-08-01T00:53:09;25.40;;;21.53;;
26478;SDS011;14163;-26.142;27.992;2022-08-01T00:55:39;28.43;;;20.40;;
26478;SDS011;14163;-26.142;27.992;2022-08-01T00:58:08;28.60;;;21.80;;
26478;SDS011;14163;-26.142;27.992;2022-08-01T01:00:37;27.17;;;22.80;;
26478;SDS011;14163;-26.142;27.992;2022-08-01T01:03:07;29.10;;;22.73;;
26478;SDS011;14163;-26.142;27.992;2022-08-01T01:05:38;30.73;;;23.80;;
26478;SDS011;14163;-26.142;27.992;2022-08-01T01:08:16;33.33;;;22.07;;
26478;SDS011;14163;-26.142;27.992;2022-08-01T01:10:52;30.43;;;23.20;;
26478;SDS011;14163;-26.142;27.992;2022-08-01T01:13:26;30.20;;;23.13;;
26478;SDS011;14163;-26.142;27.992;2022-08-01T01:16:03;30.57;;;24.90;;
26478;SDS011;14163;-26.142;27.992;2022-08-01T01:18:38;35.17;;;24.30;;
26478;SDS011;14163;-26.142;27.992;2022-08-01T01:21:13;32.23;;;25.43;;
26478;SDS011;14163;-26.142;27.992;2022-08-01T01:23:57;31.80;;;26.07;;
26478;SDS011;14163;-26.142;27.992;2022-08-01T01:26:40;30.70;;;25.53;;
26478;SDS011;14163;-26.142;27.992;2022-08-01T01:29:20;37.23;;;25.20;;
26478;SDS011;14163;-26.142;27.992;2022-08-01T01:31:55;37.20;;;27.40;;
26478;SDS011;14163;-26.142;27.992;2022-08-01T01:34:26;34.13;;;27.17;;
26478;SDS011;14163;-26.142;27.992;2022-08-01T01:36:58;37.03;;;27.53;;
26478;SDS011;14163;-26.142;27.992;2022-08-01T01:39:29;33.77;;;25.60;;
26478;SDS011;14163;-26.142;27.992;2022-08-01T01:42:00;29.17;;;25.50;;
26478;SDS011;14163;-26.142;27.992;2022-08-01T01:44:34;35.57;;;26.03;;
26478;SDS011;14163;-26.142;27.992;2022-08-01T01:47:05;34.57;;;28.67;;
26478;SDS011;14163;-26.142;27.992;2022-08-01T01:49:35;37.17;;;30.03;;
26478;SDS011;14163;-26.142;27.992;2022-08-01T01:52:05;44.40;;;31.17;;
26478;SDS011;14163;-26.142;27.992;2022-08-01T01:54:37;34.53;;;27.97;;
26478;SDS011;14163;-26.142;27.992;2022-08-01T01:57:10;36.47;;;29.20;;
26478;SDS011;14163;-26.142;27.992;2022-08-01T01:59:42;33.87;;;28.07;;
26478;SDS011;14163;-26.142;27.992;2022-08-01T02:02:13;32.17;;;27.47;;
26478;SDS011;14163;-26.142;27.992;2022-08-01T02:04:44;35.77;;;26.40;;
26478;SDS011;14163;-26.142;27.992;2022-08-01T02:07:16;30.73;;;24.50;;
26478;SDS011;14163;-26.142;27.992;2022-08-01T02:09:48;30.43;;;25.37;;
26478;SDS011;14163;-26.142;27.992;2022-08-01T02:12:18;34.63;;;26.73;;
26478;SDS011;14163;-26.142;27.992;2022-08-01T02:14:51;32.80;;;25.50;;
26478;SDS011;14163;-26.142;27.992;2022-08-01T02:17:24;34.60;;;27.37;;
26478;SDS011;14163;-26.142;27.992;2022-08-01T02:19:54;31.20;;;24.47;;
26478;SDS011;14163;-26.142;27.992;2022-08-01T02:22:24;32.70;;;24.97;;
26478;SDS011;14163;-26.142;27.992;2022-08-01T02:24:58;30.03;;;23.47;;
26478;SDS011;14163;-26.142;27.992;2022-08-01T02:27:34;32.77;;;25.50;;
26478;SDS011;14163;-26.142;27.992;2022-08-01T02:30:10;38.27;;;25.87;;
26478;SDS011;14163;-26.142;27.992;2022-08-01T02:32:43;31.60;;;24.83;;
26478;SDS011;14163;-26.142;27.992;2022-08-01T02:35:18;29.23;;;24.67;;
26478;SDS011;14163;-26.142;27.992;2022-08-01T02:37:50;28.60;;;24.37;;
26478;SDS011;14163;-26.142;27.992;2022-08-01T02:40:21;33.40;;;26.67;;
26478;SDS011;14163;-26.142;27.992;2022-08-01T02:42:51;33.83;;;26.47;;
26478;SDS011;14163;-26.142;27.992;2022-08-01T02:45:24;28.13;;;25.07;;
26478;SDS011;14163;-26.142;27.992;2022-08-01T02:47:57;29.80;;;25.23;;
26478;SDS011;14163;-26.142;27.992;2022-08-01T02:50:29;29.47;;;24.13;;
26478;SDS011;14163;-26.142;27.992;2022-08-01T02:52:59;32.20;;;25.40;;
26478;SDS011;14163;-26.142;27.992;2022-08-01T02:55:31;31.90;;;24.10;;
26478;SDS011;14163;-26.142;27.992;2022-08-01T02:58:02;28.53;;;23.90;;
26478;SDS011;14163;-26.142;27.992;2022-08-01T03:00:34;30.63;;;25.43;;
26478;SDS011;14163;-26.142;27.992;2022-08-01T03:03:03;29.60;;;24.43;;
26478;SDS011;14163;-26.142;27.992;2022-08-01T03:05:35;36.30;;;24.57;;
26478;SDS011;14163;-26.142;27.992;2022-08-01T03:08:06;35.07;;;23.63;;
26478;SDS011;14163;-26.142;27.992;2022-08-01T03:10:36;31.50;;;24.50;;
26478;SDS011;14163;-26.142;27.992;2022-08-01T03:13:07;33.37;;;25.53;;
26478;SDS011;14163;-26.142;27.992;2022-08-01T03:15:39;35.93;;;23.67;;
26478;SDS011;14163;-26.142;27.992;2022-08-01T03:18:11;34.37;;;22.60;;
26478;SDS011;14163;-26.142;27.992;2022-08-01T03:20:41;28.43;;;23.80;;
26478;SDS011;14163;-26.142;27.992;2022-08-01T03:23:12;34.70;;;25.00;;
26478;SDS011;14163;-26.142;27.992;2022-08-01T03:25:43;30.50;;;25.63;;
26478;SDS011;14163;-26.142;27.992;2022-08-01T03:28:14;32.47;;;25.30;;
26478;SDS011;14163;-26.142;27.992;2022-08-01T03:30:48;33.13;;;26.10;;
26478;SDS011;14163;-26.142;27.992;2022-08-01T03:33:19;31.73;;;25.20;;
26478;SDS011;14163;-26.142;27.992;2022-08-01T03:35:48;30.47;;;24.67;;
26478;SDS011;14163;-26.142;27.992;2022-08-01T03:38:22;34.70;;;24.80;;
26478;SDS011;14163;-26.142;27.992;2022-08-01T03:40:53;30.07;;;25.07;;
26478;SDS011;14163;-26.142;27.992;2022-08-01T03:43:28;26.10;;;23.30;;
26478;SDS011;14163;-26.142;27.992;2022-08-01T03:46:05;28.00;;;21.80;;
26478;SDS011;14163;-26.142;27.992;2022-08-01T03:48:37;28.17;;;21.60;;
26478;SDS011;14163;-26.142;27.992;2022-08-01T03:51:10;25.60;;;21.77;;
26478;SDS011;14163;-26.142;27.992;2022-08-01T03:53:42;30.50;;;21.10;;
26478;SDS011;14163;-26.142;27.992;2022-08-01T03:56:12;26.10;;;22.73;;
26478;SDS011;14163;-26.142;27.992;2022-08-01T03:58:45;26.50;;;20.93;;
26478;SDS011;14163;-26.142;27.992;2022-08-01T04:01:17;26.97;;;22.07;;
26478;SDS011;14163;-26.142;27.992;2022-08-01T04:03:47;27.33;;;22.53;;
26478;SDS011;14163;-26.142;27.992;2022-08-01T04:06:17;30.10;;;22.60;;
26478;SDS011;14163;-26.142;27.992;2022-08-01T04:08:46;28.50;;;23.47;;
26478;SDS011;14163;-26.142;27.992;2022-08-01T04:11:23;24.83;;;22.13;;
26478;SDS011;14163;-26.142;27.992;2022-08-01T04:13:53;28.17;;;22.07;;
26478;SDS011;14163;-26.142;27.992;2022-08-01T04:16:25;26.40;;;21.90;;
26478;SDS011;14163;-26.142;27.992;2022-08-01T04:18:54;30.40;;;20.90;;
26478;SDS011;14163;-26.142;27.992;2022-08-01T04:21:24;26.60;;;20.70;;
26478;SDS011;14163;-26.142;27.992;2022-08-01T04:23:56;27.33;;;21.90;;
26478;SDS011;14163;-26.142;27.992;2022-08-01T04:26:29;28.67;;;23.90;;
26478;SDS011;14163;-26.142;27.992;2022-08-01T04:29:00;28.43;;;22.97;;
26478;SDS011;14163;-26.142;27.992;2022-08-01T04:31:32;26.60;;;23.57;;
26478;SDS011;14163;-26.142;27.992;2022-08-01T04:34:03;32.60;;;24.07;;
26478;SDS011;14163;-26.142;27.992;2022-08-01T04:36:34;28.63;;;24.37;;
26478;SDS011;14163;-26.142;27.992;2022-08-01T04:39:04;33.23;;;25.50;;
26478;SDS011;14163;-26.142;27.992;2022-08-01T04:41:34;26.80;;;22.87;;
26478;SDS011;14163;-26.142;27.992;2022-08-01T04:44:05;28.97;;;24.07;;
26478;SDS011;14163;-26.142;27.992;2022-08-01T04:46:36;32.97;;;23.60;;
26478;SDS011;14163;-26.142;27.992;2022-08-01T04:49:06;33.67;;;24.90;;
26478;SDS011;14163;-26.142;27.992;2022-08-01T04:51:49;32.13;;;25.80;;
26478;SDS011;14163;-26.142;27.992;2022-08-01T04:54:23;32.57;;;25.10;;
26478;SDS011;14163;-26.142;27.992;2022-08-01T04:56:53;29.33;;;25.10;;
26478;SDS011;14163;-26.142;27.992;2022-08-01T04:59:25;30.70;;;25.57;;
26478;SDS011;14163;-26.142;27.992;2022-08-01T05:02:16;37.40;;;27.40;;
26478;SDS011;14163;-26.142;27.992;2022-08-01T05:04:46;31.10;;;26.70;;
26478;SDS011;14163;-26.142;27.992;2022-08-01T05:07:15;34.83;;;26.27;;
26478;SDS011;14163;-26.142;27.992;2022-08-01T05:09:45;32.13;;;26.70;;
26478;SDS011;14163;-26.142;27.992;2022-08-01T05:12:14;33.97;;;26.57;;
26478;SDS011;14163;-26.142;27.992;2022-08-01T05:14:44;32.60;;;26.23;;
26478;SDS011;14163;-26.142;27.992;2022-08-01T05:17:15;38.47;;;27.67;;
26478;SDS011;14163;-26.142;27.992;2022-08-01T05:19:44;32.83;;;26.33;;
26478;SDS011;14163;-26.142;27.992;2022-08-01T05:22:13;31.27;;;25.70;;
26478;SDS011;14163;-26.142;27.992;2022-08-01T05:24:43;34.17;;;28.00;;
26478;SDS011;14163;-26.142;27.992;2022-08-01T05:27:12;35.43;;;27.70;;
26478;SDS011;14163;-26.142;27.992;2022-08-01T05:29:41;37.63;;;27.40;;
26478;SDS011;14163;-26.142;27.992;2022-08-01T05:32:11;31.43;;;27.47;;
26478;SDS011;14163;-26.142;27.992;2022-08-01T05:34:42;37.30;;;27.97;;
26478;SDS011;14163;-26.142;27.992;2022-08-01T05:37:11;41.17;;;26.23;;
26478;SDS011;14163;-26.142;27.992;2022-08-01T05:39:40;34.07;;;27.07;;
26478;SDS011;14163;-26.142;27.992;2022-08-01T05:42:09;35.50;;;28.13;;
26478;SDS011;14163;-26.142;27.992;2022-08-01T05:44:39;46.30;;;28.03;;
26478;SDS011;14163;-26.142;27.992;2022-08-01T05:47:08;34.90;;;27.20;;
26478;SDS011;14163;-26.142;27.992;2022-08-01T05:49:37;33.27;;;28.00;;
26478;SDS011;14163;-26.142;27.992;2022-08-01T05:52:08;33.47;;;28.30;;
26478;SDS011;14163;-26.142;27.992;2022-08-01T05:54:38;39.80;;;28.33;;
26478;SDS011;14163;-26.142;27.992;2022-08-01T05:57:07;36.27;;;28.90;;
26478;SDS011;14163;-26.142;27.992;2022-08-01T05:59:36;33.83;;;24.80;;
26478;SDS011;14163;-26.142;27.992;2022-08-01T06:02:06;34.40;;;27.60;;
26478;SDS011;14163;-26.142;27.992;2022-08-01T06:04:35;35.07;;;28.77;;
26478;SDS011;14163;-26.142;27.992;2022-08-01T06:07:04;36.63;;;27.53;;
26478;SDS011;14163;-26.142;27.992;2022-08-01T06:09:35;33.70;;;28.10;;
26478;SDS011;14163;-26.142;27.992;2022-08-01T06:12:04;33.30;;;27.70;;
26478;SDS011;14163;-26.142;27.992;2022-08-01T06:14:34;35.80;;;26.67;;
26478;SDS011;14163;-26.142;27.992;2022-08-01T06:17:03;30.57;;;25.63;;
26478;SDS011;14163;-26.142;27.992;2022-08-01T06:19:32;33.37;;;28.50;;
26478;SDS011;14163;-26.142;27.992;2022-08-01T06:22:01;37.50;;;26.67;;
26478;SDS011;14163;-26.142;27.992;2022-08-01T06:24:30;36.57;;;27.77;;
26478;SDS011;14163;-26.142;27.992;2022-08-01T06:27:02;34.87;;;27.20;;
26478;SDS011;14163;-26.142;27.992;2022-08-01T06:29:31;32.00;;;27.30;;
26478;SDS011;14163;-26.142;27.992;2022-08-01T06:32:00;31.57;;;27.00;;
26478;SDS011;14163;-26.142;27.992;2022-08-01T06:34:30;34.93;;;27.87;;
26478;SDS011;14163;-26.142;27.992;2022-08-01T06:36:59;40.90;;;29.53;;
26478;SDS011;14163;-26.142;27.992;2022-08-01T06:39:28;37.53;;;30.60;;
26478;SDS011;14163;-26.142;27.992;2022-08-01T06:41:57;42.90;;;29.80;;
26478;SDS011;14163;-26.142;27.992;2022-08-01T06:44:28;38.47;;;30.00;;
26478;SDS011;14163;-26.142;27.992;2022-08-01T06:46:58;32.40;;;26.67;;
26478;SDS011;14163;-26.142;27.992;2022-08-01T06:49:27;43.80;;;29.13;;
26478;SDS011;14163;-26.142;27.992;2022-08-01T06:51:56;32.60;;;28.77;;
26478;SDS011;14163;-26.142;27.992;2022-08-01T06:54:25;40.50;;;27.47;;
26478;SDS011;14163;-26.142;27.992;2022-08-01T06:56:55;39.40;;;28.90;;
26478;SDS011;14163;-26.142;27.992;2022-08-01T06:59:24;39.80;;;28.23;;
26478;SDS011;14163;-26.142;27.992;2022-08-01T07:01:55;40.63;;;28.77;;
26478;SDS011;14163;-26.142;27.992;2022-08-01T07:04:24;41.50;;;27.20;;
26478;SDS011;14163;-26.142;27.992;2022-08-01T07:06:53;36.57;;;25.93;;
26478;SDS011;14163;-26.142;27.992;2022-08-01T07:09:22;34.27;;;25.03;;
26478;SDS011;14163;-26.142;27.992;2022-08-01T07:11:52;32.23;;;22.57;;
26478;SDS011;14163;-26.142;27.992;2022-08-01T07:14:21;30.73;;;22.27;;
26478;SDS011;14163;-26.142;27.992;2022-08-01T07:16:51;31.73;;;23.80;;
26478;SDS011;14163;-26.142;27.992;2022-08-01T07:19:22;31.17;;;21.90;;
26478;SDS011;14163;-26.142;27.992;2022-08-01T07:21:51;31.67;;;22.53;;
26478;SDS011;14163;-26.142;27.992;2022-08-01T07:24:20;33.70;;;22.27;;
26478;SDS011;14163;-26.142;27.992;2022-08-01T07:26:49;29.33;;;22.80;;
26478;SDS011;14163;-26.142;27.992;2022-08-01T07:29:19;27.67;;;22.40;;
26478;SDS011;14163;-26.142;27.992;2022-08-01T07:31:50;28.77;;;22.27;;
26478;SDS011;14163;-26.142;27.992;2022-08-01T07:34:20;29.13;;;23.30;;
26478;SDS011;14163;-26.142;27.992;2022-08-01T07:36:52;25.90;;;23.10;;
26478;SDS011;14163;-26.142;27.992;2022-08-01T07:39:21;27.17;;;23.00;;
26478;SDS011;14163;-26.142;27.992;2022-08-01T07:41:50;33.10;;;23.90;;
26478;SDS011;14163;-26.142;27.992;2022-08-01T07:44:19;29.43;;;23.33;;
26478;SDS011;14163;-26.142;27.992;2022-08-01T07:46:48;30.50;;;22.13;;
26478;SDS011;14163;-26.142;27.992;2022-08-01T07:49:18;29.10;;;20.60;;
26478;SDS011;14163;-26.142;27.992;2022-08-01T07:51:49;27.93;;;20.27;;
26478;SDS011;14163;-26.142;27.992;2022-08-01T07:54:18;26.97;;;19.90;;
26478;SDS011;14163;-26.142;27.992;2022-08-01T07:56:49;26.77;;;19.03;;
26478;SDS011;14163;-26.142;27.992;2022-08-01T07:59:18;28.57;;;20.03;;
26478;SDS011;14163;-26.142;27.992;2022-08-01T08:01:48;30.63;;;20.17;;
26478;SDS011;14163;-26.142;27.992;2022-08-01T08:04:18;30.70;;;20.43;;
26478;SDS011;14163;-26.142;27.992;2022-08-01T08:06:49;23.23;;;19.43;;
26478;SDS011;14163;-26.142;27.992;2022-08-01T08:09:19;31.00;;;20.30;;
26478;SDS011;14163;-26.142;27.992;2022-08-01T08:11:48;26.50;;;18.50;;
26478;SDS011;14163;-26.142;27.992;2022-08-01T08:14:17;23.90;;;18.53;;
26478;SDS011;14163;-26.142;27.992;2022-08-01T08:16:48;23.77;;;19.30;;
26478;SDS011;14163;-26.142;27.992;2022-08-01T08:19:18;21.27;;;18.67;;
26478;SDS011;14163;-26.142;27.992;2022-08-01T08:21:48;27.83;;;20.90;;
26478;SDS011;14163;-26.142;27.992;2022-08-01T08:24:18;27.37;;;18.97;;
26478;SDS011;14163;-26.142;27.992;2022-08-01T08:26:47;23.90;;;19.90;;
26478;SDS011;14163;-26.142;27.992;2022-08-01T08:29:18;24.87;;;20.23;;
26478;SDS011;14163;-26.142;27.992;2022-08-01T08:31:48;20.27;;;18.10;;
26478;SDS011;14163;-26.142;27.992;2022-08-01T08:34:18;27.30;;;19.30;;
26478;SDS011;14163;-26.142;27.992;2022-08-01T08:36:50;23.97;;;20.13;;
26478;SDS011;14163;-26.142;27.992;2022-08-01T08:39:20;23.57;;;18.70;;
26478;SDS011;14163;-26.142;27.992;2022-08-01T08:41:50;22.97;;;19.13;;
26478;SDS011;14163;-26.142;27.992;2022-08-01T08:44:19;24.40;;;20.00;;
26478;SDS011;14163;-26.142;27.992;2022-08-01T08:46:49;29.80;;;21.53;;
26478;SDS011;14163;-26.142;27.992;2022-08-01T08:49:21;24.80;;;21.00;;
26478;SDS011;14163;-26.142;27.992;2022-08-01T08:51:53;25.27;;;21.07;;
26478;SDS011;14163;-26.142;27.992;2022-08-01T08:54:27;22.70;;;20.30;;
26478;SDS011;14163;-26.142;27.992;2022-08-01T08:56:58;21.93;;;19.33;;
26478;SDS011;14163;-26.142;27.992;2022-08-01T08:59:28;23.50;;;17.93;;
26478;SDS011;14163;-26.142;27.992;2022-08-01T09:01:57;24.73;;;20.17;;
26478;SDS011;14163;-26.142;27.992;2022-08-01T09:04:27;27.70;;;19.50;;
26478;SDS011;14163;-26.142;27.992;2022-08-01T09:06:58;24.30;;;19.40;;
26478;SDS011;14163;-26.142;27.992;2022-08-01T09:09:27;28.53;;;20.73;;
26478;SDS011;14163;-26.142;27.992;2022-08-01T09:11:56;22.77;;;18.63;;
26478;SDS011;14163;-26.142;27.992;2022-08-01T09:14:26;28.37;;;20.60;;
26478;SDS011;14163;-26.142;27.992;2022-08-01T09:17:00;26.17;;;20.30;;
26478;SDS011;14163;-26.142;27.992;2022-08-01T09:19:35;24.20;;;20.13;;
26478;SDS011;14163;-26.142;27.992;2022-08-01T09:22:07;33.90;;;21.00;;
26478;SDS011;14163;-26.142;27.992;2022-08-01T09:24:37;21.17;;;18.87;;
26478;SDS011;14163;-26.142;27.992;2022-08-01T09:27:17;29.33;;;21.17;;
26478;SDS011;14163;-26.142;27.992;2022-08-01T09:29:49;25.63;;;20.20;;
26478;SDS011;14163;-26.142;27.992;2022-08-01T09:32:19;26.90;;;20.30;;
26478;SDS011;14163;-26.142;27.992;2022-08-01T09:34:49;27.37;;;19.40;;
26478;SDS011;14163;-26.142;27.992;2022-08-01T09:37:20;25.30;;;18.30;;
26478;SDS011;14163;-26.142;27.992;2022-08-01T09:39:58;28.30;;;20.23;;
26478;SDS011;14163;-26.142;27.992;2022-08-01T09:42:27;23.43;;;19.07;;
26478;SDS011;14163;-26.142;27.992;2022-08-01T09:44:57;21.37;;;19.20;;
26478;SDS011;14163;-26.142;27.992;2022-08-01T09:47:36;22.83;;;20.50;;
26478;SDS011;14163;-26.142;27.992;2022-08-01T09:50:06;24.80;;;22.20;;
26478;SDS011;14163;-26.142;27.992;2022-08-01T09:52:38;25.33;;;21.93;;
26478;SDS011;14163;-26.142;27.992;2022-08-01T09:55:08;22.50;;;19.63;;
26478;SDS011;14163;-26.142;27.992;2022-08-01T09:57:38;19.80;;;17.80;;
26478;SDS011;14163;-26.142;27.992;2022-08-01T10:00:16;21.10;;;19.00;;
26478;SDS011;14163;-26.142;27.992;2022-08-01T10:02:46;25.93;;;23.43;;
26478;SDS011;14163;-26.142;27.992;2022-08-01T10:05:15;29.00;;;24.80;;
26478;SDS011;14163;-26.142;27.992;2022-08-01T10:10:31;19.20;;;17.37;;
26478;SDS011;14163;-26.142;27.992;2022-08-01T10:13:00;23.40;;;20.77;;
26478;SDS011;14163;-26.142;27.992;2022-08-01T10:15:31;22.57;;;20.13;;
26478;SDS011;14163;-26.142;27.992;2022-08-01T10:18:01;20.87;;;18.93;;
26478;SDS011;14163;-26.142;27.992;2022-08-01T10:20:33;22.63;;;20.47;;
26478;SDS011;14163;-26.142;27.992;2022-08-01T10:23:04;23.90;;;21.40;;
26478;SDS011;14163;-26.142;27.992;2022-08-01T10:25:36;23.00;;;20.70;;
26478;SDS011;14163;-26.142;27.992;2022-08-01T10:28:13;22.80;;;19.80;;
26478;SDS011;14163;-26.142;27.992;2022-08-01T10:30:43;22.10;;;19.87;;
26478;SDS011;14163;-26.142;27.992;2022-08-01T10:33:13;24.70;;;22.23;;
26478;SDS011;14163;-26.142;27.992;2022-08-01T10:35:43;25.90;;;23.10;;
26478;SDS011;14163;-26.142;27.992;2022-08-01T10:38:15;26.37;;;23.77;;
26478;SDS011;14163;-26.142;27.992;2022-08-01T10:40:45;27.60;;;25.00;;
26478;SDS011;14163;-26.142;27.992;2022-08-01T10:43:14;27.90;;;22.83;;
26478;SDS011;14163;-26.142;27.992;2022-08-01T10:45:44;21.63;;;19.33;;
26478;SDS011;14163;-26.142;27.992;2022-08-01T10:48:14;20.77;;;18.27;;
26478;SDS011;14163;-26.142;27.992;2022-08-01T10:50:48;22.37;;;20.07;;
26478;SDS011;14163;-26.142;27.992;2022-08-01T10:53:22;25.03;;;22.73;;
26478;SDS011;14163;-26.142;27.992;2022-08-01T10:55:52;24.90;;;20.20;;
26478;SDS011;14163;-26.142;27.992;2022-08-01T10:58:27;23.97;;;21.43;;
26478;SDS011;14163;-26.142;27.992;2022-08-01T11:03:58;30.13;;;27.00;;
26478;SDS011;14163;-26.142;27.992;2022-08-01T11:06:42;28.50;;;25.60;;
26478;SDS011;14163;-26.142;27.992;2022-08-01T11:12:11;24.60;;;22.20;;
26478;SDS011;14163;-26.142;27.992;2022-08-01T11:17:54;24.67;;;22.50;;
26478;SDS011;14163;-26.142;27.992;2022-08-01T11:20:24;25.27;;;22.60;;
26478;SDS011;14163;-26.142;27.992;2022-08-01T11:26:17;22.60;;;20.30;;
26478;SDS011;14163;-26.142;27.992;2022-08-01T11:31:44;27.03;;;22.23;;
26478;SDS011;14163;-26.142;27.992;2022-08-01T11:34:13;25.00;;;21.80;;
26478;SDS011;14163;-26.142;27.992;2022-08-01T11:36:42;25.00;;;20.80;;
26478;SDS011;14163;-26.142;27.992;2022-08-01T11:39:16;18.40;;;16.50;;
26478;SDS011;14163;-26.142;27.992;2022-08-01T11:41:47;17.20;;;15.70;;
26478;SDS011;14163;-26.142;27.992;2022-08-01T11:44:21;18.10;;;16.30;;
26478;SDS011;14163;-26.142;27.992;2022-08-01T11:46:59;18.20;;;15.50;;
26478;SDS011;14163;-26.142;27.992;2022-08-01T11:52:27;22.33;;;16.33;;
26478;SDS011;14163;-26.142;27.992;2022-08-01T11:55:01;22.37;;;20.13;;
26478;SDS011;14163;-26.142;27.992;2022-08-01T11:57:36;21.67;;;19.57;;
26478;SDS011;14163;-26.142;27.992;2022-08-01T12:00:10;24.70;;;22.23;;
26478;SDS011;14163;-26.142;27.992;2022-08-01T12:02:42;20.47;;;18.53;;
26478;SDS011;14163;-26.142;27.992;2022-08-01T12:05:12;17.23;;;15.47;;
26478;SDS011;14163;-26.142;27.992;2022-08-01T12:07:43;19.17;;;17.30;;
26478;SDS011;14163;-26.142;27.992;2022-08-01T12:10:17;23.10;;;19.67;;
26478;SDS011;14163;-26.142;27.992;2022-08-01T12:12:49;21.17;;;18.97;;
26478;SDS011;14163;-26.142;27.992;2022-08-01T12:15:20;15.13;;;13.63;;
26478;SDS011;14163;-26.142;27.992;2022-08-01T12:17:54;14.10;;;12.33;;
26478;SDS011;14163;-26.142;27.992;2022-08-01T12:20:25;12.40;;;11.30;;
26478;SDS011;14163;-26.142;27.992;2022-08-01T12:22:55;12.60;;;11.33;;
26478;SDS011;14163;-26.142;27.992;2022-08-01T12:25:25;14.40;;;12.90;;
26478;SDS011;14163;-26.142;27.992;2022-08-01T12:27:58;15.03;;;13.37;;
26478;SDS011;14163;-26.142;27.992;2022-08-01T12:30:29;14.20;;;12.27;;
26478;SDS011;14163;-26.142;27.992;2022-08-01T12:33:01;13.47;;;11.93;;
26478;SDS011;14163;-26.142;27.992;2022-08-01T12:35:31;13.10;;;11.87;;
26478;SDS011;14163;-26.142;27.992;2022-08-01T12:38:03;12.37;;;11.17;;
26478;SDS011;14163;-26.142;27.992;2022-08-01T12:40:35;12.10;;;10.80;;
26478;SDS011;14163;-26.142;27.992;2022-08-01T12:43:10;13.27;;;12.07;;
26478;SDS011;14163;-26.142;27.992;2022-08-01T12:45:45;12.87;;;11.53;;
26478;SDS011;14163;-26.142;27.992;2022-08-01T12:48:16;13.33;;;11.93;;
26478;SDS011;14163;-26.142;27.992;2022-08-01T12:50:46;13.30;;;11.90;;
26478;SDS011;14163;-26.142;27.992;2022-08-01T12:53:17;15.50;;;14.00;;
26478;SDS011;14163;-26.142;27.992;2022-08-01T12:55:48;13.30;;;11.97;;
26478;SDS011;14163;-26.142;27.992;2022-08-01T12:58:19;14.30;;;12.00;;
26478;SDS011;14163;-26.142;27.992;2022-08-01T13:00:49;17.20;;;11.87;;
26478;SDS011;14163;-26.142;27.992;2022-08-01T13:03:29;12.83;;;11.40;;
26478;SDS011;14163;-26.142;27.992;2022-08-01T13:05:59;13.93;;;12.53;;
26478;SDS011;14163;-26.142;27.992;2022-08-01T13:08:29;13.20;;;11.83;;
26478;SDS011;14163;-26.142;27.992;2022-08-01T13:11:03;13.53;;;12.13;;
26478;SDS011;14163;-26.142;27.992;2022-08-01T13:13:39;14.57;;;13.10;;
26478;SDS011;14163;-26.142;27.992;2022-08-01T13:16:10;19.00;;;13.60;;
26478;SDS011;14163;-26.142;27.992;2022-08-01T13:18:39;16.47;;;12.53;;
26478;SDS011;14163;-26.142;27.992;2022-08-01T13:21:16;18.50;;;12.77;;
26478;SDS011;14163;-26.142;27.992;2022-08-01T13:24:00;16.30;;;14.60;;
26478;SDS011;14163;-26.142;27.992;2022-08-01T13:26:37;15.37;;;13.87;;
26478;SDS011;14163;-26.142;27.992;2022-08-01T13:29:11;17.30;;;14.00;;
26478;SDS011;14163;-26.142;27.992;2022-08-01T13:31:42;14.17;;;12.87;;
26478;SDS011;14163;-26.142;27.992;2022-08-01T13:34:11;13.57;;;12.23;;
26478;SDS011;14163;-26.142;27.992;2022-08-01T13:36:41;15.10;;;13.50;;
26478;SDS011;14163;-26.142;27.992;2022-08-01T13:39:10;13.17;;;11.53;;
26478;SDS011;14163;-26.142;27.992;2022-08-01T13:41:56;15.17;;;13.30;;
26478;SDS011;14163;-26.142;27.992;2022-08-01T13:44:27;19.90;;;17.10;;
26478;SDS011;14163;-26.142;27.992;2022-08-01T13:46:56;25.13;;;22.13;;
26478;SDS011;14163;-26.142;27.992;2022-08-01T13:49:25;27.50;;;22.63;;
26478;SDS011;14163;-26.142;27.992;2022-08-01T13:51:55;25.23;;;19.67;;
26478;SDS011;14163;-26.142;27.992;2022-08-01T13:54:24;19.70;;;17.50;;
26478;SDS011;14163;-26.142;27.992;2022-08-01T13:56:53;20.73;;;16.10;;
26478;SDS011;14163;-26.142;27.992;2022-08-01T13:59:23;23.30;;;20.20;;
26478;SDS011;14163;-26.142;27.992;2022-08-01T14:01:53;26.80;;;18.37;;
26478;SDS011;14163;-26.142;27.992;2022-08-01T14:04:23;21.43;;;18.30;;
26478;SDS011;14163;-26.142;27.992;2022-08-01T14:06:52;27.73;;;20.33;;
26478;SDS011;14163;-26.142;27.992;2022-08-01T14:09:22;23.10;;;19.40;;
26478;SDS011;14163;-26.142;27.992;2022-08-01T14:11:51;20.97;;;18.23;;
26478;SDS011;14163;-26.142;27.992;2022-08-01T14:14:20;34.30;;;25.40;;
26478;SDS011;14163;-26.142;27.992;2022-08-01T14:16:50;13.60;;;12.30;;
26478;SDS011;14163;-26.142;27.992;2022-08-01T14:19:21;13.87;;;12.47;;
26478;SDS011;14163;-26.142;27.992;2022-08-01T14:21:50;13.30;;;11.90;;
26478;SDS011;14163;-26.142;27.992;2022-08-01T14:24:19;15.43;;;10.63;;
26478;SDS011;14163;-26.142;27.992;2022-08-01T14:26:49;12.23;;;10.63;;
26478;SDS011;14163;-26.142;27.992;2022-08-01T14:29:18;16.67;;;10.70;;
26478;SDS011;14163;-26.142;27.992;2022-08-01T14:31:47;16.97;;;14.83;;
26478;SDS011;14163;-26.142;27.992;2022-08-01T14:34:16;16.83;;;13.60;;
26478;SDS011;14163;-26.142;27.992;2022-08-01T14:36:47;12.33;;;11.13;;
26478;SDS011;14163;-26.142;27.992;2022-08-01T14:39:19;10.80;;;9.70;;